メインページ
METAR-TAF:

METAR-TAF

空港 :

シェレメーチエヴォ国際空港

モスクワ-シェレメーチエヴォ, ロシア

緯度: 55-58N, 経度: 037-25E, 海抜: 190m

現時点の気象観測

当レポートは15分前の07:30(UTC)に作成
北東の風 16kt
気温 26°C
湿度 65%
気圧 1007 hPa
視程10km以上
高度3300ftの雲は散在している

METAR: UUEE 170730Z 05008MPS 9999 SCT033 26/19 Q1007 R06C/CLRD62 R06R/CLRD62 NOSIG

時間: 10:45 (07:45 UTC)

予報

当レポートは2時間45分前の05:00(UTC)に作成
予報は17日の 06時(UTC)から 18日の 06時(UTC)まで有効
北東の風 14kt
視程10km以上
高度2500ftの千切れ雲あり

TAF: UUEE 170500Z 1706/1806 05007MPS 9999 BKN025 TX29/1712Z TN19/1802Z

4,000以上の空港の気象観測と天気予報(METAR報とTAF報)

利用可能な観測所は地図上に黄色い丸と赤い丸で示す。

丸の上にカーソルを重ねると観測所名を参照できる。

次にクリックすると気象観測と天気予報を参照できる。

マップの切り替え:黒色「×」印の緑ボタンをクリックして拡大、「-」印の緑ボタンをクリックして縮小、緑色の三角印をクリックして隣りの地図に切り替え


METAR-TAF: